sensor_id;sensor_type;location;lat;lon;timestamp;temperature;humidity
25302;DHT22;13243;50.888;4.724;2022-11-20T00:02:23;4.20;99.90
25302;DHT22;13243;50.888;4.724;2022-11-20T00:07:25;4.20;99.90
25302;DHT22;13243;50.888;4.724;2022-11-20T00:12:27;4.20;99.90
25302;DHT22;13243;50.888;4.724;2022-11-20T00:17:29;4.30;99.90
25302;DHT22;13243;50.888;4.724;2022-11-20T00:22:31;4.30;99.90
25302;DHT22;13243;50.888;4.724;2022-11-20T00:27:33;4.20;99.90
25302;DHT22;13243;50.888;4.724;2022-11-20T00:32:35;4.20;99.90
25302;DHT22;13243;50.888;4.724;2022-11-20T00:37:37;4.20;99.90
25302;DHT22;13243;50.888;4.724;2022-11-20T00:42:38;4.30;99.90
25302;DHT22;13243;50.888;4.724;2022-11-20T00:47:40;4.20;99.90
25302;DHT22;13243;50.888;4.724;2022-11-20T00:52:42;4.20;99.90
25302;DHT22;13243;50.888;4.724;2022-11-20T00:57:44;4.20;99.90
25302;DHT22;13243;50.888;4.724;2022-11-20T01:02:45;4.20;99.90
25302;DHT22;13243;50.888;4.724;2022-11-20T01:07:47;4.20;99.90
25302;DHT22;13243;50.888;4.724;2022-11-20T01:12:49;4.30;99.90
25302;DHT22;13243;50.888;4.724;2022-11-20T01:18:11;4.20;99.90
25302;DHT22;13243;50.888;4.724;2022-11-20T01:23:13;4.30;99.90
25302;DHT22;13243;50.888;4.724;2022-11-20T01:28:15;4.30;99.90
25302;DHT22;13243;50.888;4.724;2022-11-20T01:33:16;4.30;99.90
25302;DHT22;13243;50.888;4.724;2022-11-20T01:38:18;4.30;99.90
25302;DHT22;13243;50.888;4.724;2022-11-20T01:43:22;4.20;99.90
25302;DHT22;13243;50.888;4.724;2022-11-20T01:48:31;4.20;99.90
25302;DHT22;13243;50.888;4.724;2022-11-20T01:53:36;4.30;99.90
25302;DHT22;13243;50.888;4.724;2022-11-20T01:58:42;4.30;99.90
25302;DHT22;13243;50.888;4.724;2022-11-20T02:03:46;4.30;99.90
25302;DHT22;13243;50.888;4.724;2022-11-20T02:08:49;4.30;99.90
25302;DHT22;13243;50.888;4.724;2022-11-20T02:13:52;4.20;99.90
25302;DHT22;13243;50.888;4.724;2022-11-20T02:18:56;4.20;99.90
25302;DHT22;13243;50.888;4.724;2022-11-20T02:29:06;4.30;99.90
25302;DHT22;13243;50.888;4.724;2022-11-20T02:34:09;4.30;99.90
25302;DHT22;13243;50.888;4.724;2022-11-20T02:39:12;4.30;99.90
25302;DHT22;13243;50.888;4.724;2022-11-20T02:44:15;4.20;99.90
25302;DHT22;13243;50.888;4.724;2022-11-20T02:49:16;4.10;99.90
25302;DHT22;13243;50.888;4.724;2022-11-20T02:54:18;4.20;99.90
25302;DHT22;13243;50.888;4.724;2022-11-20T02:59:20;4.30;99.90
25302;DHT22;13243;50.888;4.724;2022-11-20T03:04:23;4.30;99.90
25302;DHT22;13243;50.888;4.724;2022-11-20T03:09:25;4.30;99.90
25302;DHT22;13243;50.888;4.724;2022-11-20T03:14:26;4.20;99.90
25302;DHT22;13243;50.888;4.724;2022-11-20T03:19:28;4.10;99.90
25302;DHT22;13243;50.888;4.724;2022-11-20T03:24:30;4.20;99.90
25302;DHT22;13243;50.888;4.724;2022-11-20T03:29:32;4.30;99.90
25302;DHT22;13243;50.888;4.724;2022-11-20T03:34:34;4.30;99.90
25302;DHT22;13243;50.888;4.724;2022-11-20T03:39:35;4.30;99.90
25302;DHT22;13243;50.888;4.724;2022-11-20T03:44:37;4.40;99.90
25302;DHT22;13243;50.888;4.724;2022-11-20T03:49:39;4.40;99.90
25302;DHT22;13243;50.888;4.724;2022-11-20T03:54:41;4.40;99.90
25302;DHT22;13243;50.888;4.724;2022-11-20T03:59:42;4.30;99.90
25302;DHT22;13243;50.888;4.724;2022-11-20T04:04:44;4.30;99.90
25302;DHT22;13243;50.888;4.724;2022-11-20T04:09:46;4.30;99.90
25302;DHT22;13243;50.888;4.724;2022-11-20T04:14:48;4.30;99.90
25302;DHT22;13243;50.888;4.724;2022-11-20T04:19:49;4.30;99.90
25302;DHT22;13243;50.888;4.724;2022-11-20T04:24:51;4.30;99.90
25302;DHT22;13243;50.888;4.724;2022-11-20T04:29:53;4.40;99.90
25302;DHT22;13243;50.888;4.724;2022-11-20T04:34:55;4.40;99.90
25302;DHT22;13243;50.888;4.724;2022-11-20T04:39:56;4.30;99.90
25302;DHT22;13243;50.888;4.724;2022-11-20T04:44:58;4.40;99.90
25302;DHT22;13243;50.888;4.724;2022-11-20T04:50:00;4.20;99.90
25302;DHT22;13243;50.888;4.724;2022-11-20T04:55:02;4.20;99.90
25302;DHT22;13243;50.888;4.724;2022-11-20T05:00:05;4.20;99.90
25302;DHT22;13243;50.888;4.724;2022-11-20T05:05:07;4.20;99.90
25302;DHT22;13243;50.888;4.724;2022-11-20T05:10:09;4.10;99.90
25302;DHT22;13243;50.888;4.724;2022-11-20T05:15:11;4.10;99.90
25302;DHT22;13243;50.888;4.724;2022-11-20T05:20:13;4.10;99.90
25302;DHT22;13243;50.888;4.724;2022-11-20T05:25:15;4.10;99.90
25302;DHT22;13243;50.888;4.724;2022-11-20T05:30:17;4.20;99.90
25302;DHT22;13243;50.888;4.724;2022-11-20T05:35:18;4.20;99.90
25302;DHT22;13243;50.888;4.724;2022-11-20T05:40:20;4.30;99.90
25302;DHT22;13243;50.888;4.724;2022-11-20T05:45:22;4.40;99.90
25302;DHT22;13243;50.888;4.724;2022-11-20T05:50:24;4.40;99.90
25302;DHT22;13243;50.888;4.724;2022-11-20T05:55:27;4.50;99.90
25302;DHT22;13243;50.888;4.724;2022-11-20T06:00:29;4.40;99.90
25302;DHT22;13243;50.888;4.724;2022-11-20T06:05:30;4.50;99.90
25302;DHT22;13243;50.888;4.724;2022-11-20T06:10:32;4.50;99.90
25302;DHT22;13243;50.888;4.724;2022-11-20T06:15:34;4.50;99.90
25302;DHT22;13243;50.888;4.724;2022-11-20T06:20:36;4.40;99.90
25302;DHT22;13243;50.888;4.724;2022-11-20T06:25:43;4.40;99.90
25302;DHT22;13243;50.888;4.724;2022-11-20T06:30:45;4.50;99.90
25302;DHT22;13243;50.888;4.724;2022-11-20T06:35:47;4.50;99.90
25302;DHT22;13243;50.888;4.724;2022-11-20T06:40:49;4.50;99.90
25302;DHT22;13243;50.888;4.724;2022-11-20T06:45:55;4.50;99.90
25302;DHT22;13243;50.888;4.724;2022-11-20T06:50:57;4.50;99.90
25302;DHT22;13243;50.888;4.724;2022-11-20T06:55:59;4.50;99.90
25302;DHT22;13243;50.888;4.724;2022-11-20T07:01:04;4.40;99.90
25302;DHT22;13243;50.888;4.724;2022-11-20T07:06:06;4.50;99.90
25302;DHT22;13243;50.888;4.724;2022-11-20T07:11:11;4.60;99.90
25302;DHT22;13243;50.888;4.724;2022-11-20T07:16:13;4.60;99.90
25302;DHT22;13243;50.888;4.724;2022-11-20T07:21:15;4.50;99.90
25302;DHT22;13243;50.888;4.724;2022-11-20T07:26:17;4.50;99.90
25302;DHT22;13243;50.888;4.724;2022-11-20T07:31:19;4.60;99.90
25302;DHT22;13243;50.888;4.724;2022-11-20T07:36:21;4.60;99.90
25302;DHT22;13243;50.888;4.724;2022-11-20T07:41:23;4.80;99.90
25302;DHT22;13243;50.888;4.724;2022-11-20T07:46:25;4.80;99.90
25302;DHT22;13243;50.888;4.724;2022-11-20T07:51:27;4.90;99.90
25302;DHT22;13243;50.888;4.724;2022-11-20T07:56:29;4.90;99.90
25302;DHT22;13243;50.888;4.724;2022-11-20T08:01:30;5.10;99.90
25302;DHT22;13243;50.888;4.724;2022-11-20T08:06:32;4.90;99.90
25302;DHT22;13243;50.888;4.724;2022-11-20T08:11:34;5.10;99.90
25302;DHT22;13243;50.888;4.724;2022-11-20T08:16:54;5.10;99.90
25302;DHT22;13243;50.888;4.724;2022-11-20T08:21:56;5.10;99.90
25302;DHT22;13243;50.888;4.724;2022-11-20T08:26:58;5.20;99.90
25302;DHT22;13243;50.888;4.724;2022-11-20T08:32:00;5.40;99.90
25302;DHT22;13243;50.888;4.724;2022-11-20T08:37:03;5.50;99.90
25302;DHT22;13243;50.888;4.724;2022-11-20T08:42:08;5.50;99.90
25302;DHT22;13243;50.888;4.724;2022-11-20T08:47:09;5.60;99.90
25302;DHT22;13243;50.888;4.724;2022-11-20T08:52:11;5.60;99.90
25302;DHT22;13243;50.888;4.724;2022-11-20T08:57:13;5.60;99.90
25302;DHT22;13243;50.888;4.724;2022-11-20T09:02:15;5.70;99.90
25302;DHT22;13243;50.888;4.724;2022-11-20T09:07:17;5.80;99.90
25302;DHT22;13243;50.888;4.724;2022-11-20T09:12:18;5.80;99.90
25302;DHT22;13243;50.888;4.724;2022-11-20T09:17:20;5.90;99.90
25302;DHT22;13243;50.888;4.724;2022-11-20T09:22:22;6.00;99.90
25302;DHT22;13243;50.888;4.724;2022-11-20T09:27:24;5.90;99.90
25302;DHT22;13243;50.888;4.724;2022-11-20T09:32:26;6.00;99.90
25302;DHT22;13243;50.888;4.724;2022-11-20T09:37:27;6.10;99.90
25302;DHT22;13243;50.888;4.724;2022-11-20T09:58:48;6.50;99.90
25302;DHT22;13243;50.888;4.724;2022-11-20T10:04:10;6.40;99.90
25302;DHT22;13243;50.888;4.724;2022-11-20T10:09:25;6.60;99.90
25302;DHT22;13243;50.888;4.724;2022-11-20T10:15:31;6.70;99.90
25302;DHT22;13243;50.888;4.724;2022-11-20T10:20:15;6.80;99.90
25302;DHT22;13243;50.888;4.724;2022-11-20T10:25:50;6.80;99.90
25302;DHT22;13243;50.888;4.724;2022-11-20T10:31:01;6.90;99.90
25302;DHT22;13243;50.888;4.724;2022-11-20T10:36:54;6.90;99.90
25302;DHT22;13243;50.888;4.724;2022-11-20T10:41:41;7.00;99.90
25302;DHT22;13243;50.888;4.724;2022-11-20T10:46:46;7.10;99.90
25302;DHT22;13243;50.888;4.724;2022-11-20T10:56:56;7.40;99.90
25302;DHT22;13243;50.888;4.724;2022-11-20T11:02:01;7.50;99.90
25302;DHT22;13243;50.888;4.724;2022-11-20T11:07:25;7.60;99.90
25302;DHT22;13243;50.888;4.724;2022-11-20T11:12:29;7.80;99.90
25302;DHT22;13243;50.888;4.724;2022-11-20T11:17:33;7.90;99.90
25302;DHT22;13243;50.888;4.724;2022-11-20T11:23:03;8.00;99.90
25302;DHT22;13243;50.888;4.724;2022-11-20T11:33:25;8.10;99.90
25302;DHT22;13243;50.888;4.724;2022-11-20T11:38:37;8.10;99.90
25302;DHT22;13243;50.888;4.724;2022-11-20T11:43:53;8.20;99.90
25302;DHT22;13243;50.888;4.724;2022-11-20T11:49:17;8.20;99.90
25302;DHT22;13243;50.888;4.724;2022-11-20T11:54:41;8.20;99.90
25302;DHT22;13243;50.888;4.724;2022-11-20T12:16:14;8.40;99.90
25302;DHT22;13243;50.888;4.724;2022-11-20T12:26:55;8.40;99.90
25302;DHT22;13243;50.888;4.724;2022-11-20T12:37:38;8.10;99.90
25302;DHT22;13243;50.888;4.724;2022-11-20T12:42:55;8.00;99.90
25302;DHT22;13243;50.888;4.724;2022-11-20T12:48:38;8.00;99.90
25302;DHT22;13243;50.888;4.724;2022-11-20T13:09:46;7.70;99.90
25302;DHT22;13243;50.888;4.724;2022-11-20T13:15:27;7.70;99.90
25302;DHT22;13243;50.888;4.724;2022-11-20T13:20:33;7.70;99.90
25302;DHT22;13243;50.888;4.724;2022-11-20T13:25:38;7.80;99.90
25302;DHT22;13243;50.888;4.724;2022-11-20T13:30:53;7.80;99.90
25302;DHT22;13243;50.888;4.724;2022-11-20T13:35:58;7.80;99.90
25302;DHT22;13243;50.888;4.724;2022-11-20T13:41:01;7.80;99.90
25302;DHT22;13243;50.888;4.724;2022-11-20T13:46:45;7.80;99.90
25302;DHT22;13243;50.888;4.724;2022-11-20T13:51:49;7.70;99.90
25302;DHT22;13243;50.888;4.724;2022-11-20T14:02:26;7.60;99.90
25302;DHT22;13243;50.888;4.724;2022-11-20T14:07:41;7.60;99.90
25302;DHT22;13243;50.888;4.724;2022-11-20T14:12:44;7.60;99.90
25302;DHT22;13243;50.888;4.724;2022-11-20T14:17:45;7.60;99.90
25302;DHT22;13243;50.888;4.724;2022-11-20T14:22:51;7.60;99.90
25302;DHT22;13243;50.888;4.724;2022-11-20T14:27:59;7.60;99.90
25302;DHT22;13243;50.888;4.724;2022-11-20T14:33:02;7.70;99.90
25302;DHT22;13243;50.888;4.724;2022-11-20T14:38:10;7.60;99.90
25302;DHT22;13243;50.888;4.724;2022-11-20T14:43:28;7.60;99.90
25302;DHT22;13243;50.888;4.724;2022-11-20T14:48:55;7.70;99.90
25302;DHT22;13243;50.888;4.724;2022-11-20T14:54:09;7.70;99.90
25302;DHT22;13243;50.888;4.724;2022-11-20T14:59:11;7.80;99.90
25302;DHT22;13243;50.888;4.724;2022-11-20T15:04:23;7.70;99.90
25302;DHT22;13243;50.888;4.724;2022-11-20T15:09:26;7.80;99.90
25302;DHT22;13243;50.888;4.724;2022-11-20T15:14:30;7.70;99.90
25302;DHT22;13243;50.888;4.724;2022-11-20T15:19:32;7.80;99.90
25302;DHT22;13243;50.888;4.724;2022-11-20T15:24:35;7.80;99.90
25302;DHT22;13243;50.888;4.724;2022-11-20T15:29:37;7.80;99.90
25302;DHT22;13243;50.888;4.724;2022-11-20T15:34:39;7.80;99.90
25302;DHT22;13243;50.888;4.724;2022-11-20T15:39:41;7.90;99.90
25302;DHT22;13243;50.888;4.724;2022-11-20T15:44:43;7.90;99.90
25302;DHT22;13243;50.888;4.724;2022-11-20T15:49:44;8.10;99.90
25302;DHT22;13243;50.888;4.724;2022-11-20T15:54:46;8.30;99.90
25302;DHT22;13243;50.888;4.724;2022-11-20T15:59:48;8.30;99.90
25302;DHT22;13243;50.888;4.724;2022-11-20T16:04:50;8.40;99.90
25302;DHT22;13243;50.888;4.724;2022-11-20T16:09:51;8.40;99.90
25302;DHT22;13243;50.888;4.724;2022-11-20T16:14:53;8.50;99.90
25302;DHT22;13243;50.888;4.724;2022-11-20T16:20:15;8.40;99.90
25302;DHT22;13243;50.888;4.724;2022-11-20T16:25:17;8.40;99.90
25302;DHT22;13243;50.888;4.724;2022-11-20T16:30:18;8.50;99.90
25302;DHT22;13243;50.888;4.724;2022-11-20T16:35:21;8.50;99.90
25302;DHT22;13243;50.888;4.724;2022-11-20T16:40:23;8.50;99.90
25302;DHT22;13243;50.888;4.724;2022-11-20T16:45:25;8.50;99.90
25302;DHT22;13243;50.888;4.724;2022-11-20T16:50:33;8.40;99.90
25302;DHT22;13243;50.888;4.724;2022-11-20T16:55:35;8.60;99.90
25302;DHT22;13243;50.888;4.724;2022-11-20T17:00:37;8.60;99.90
25302;DHT22;13243;50.888;4.724;2022-11-20T17:05:39;8.60;99.90
25302;DHT22;13243;50.888;4.724;2022-11-20T17:10:41;8.60;99.90
25302;DHT22;13243;50.888;4.724;2022-11-20T17:15:43;8.70;99.90
25302;DHT22;13243;50.888;4.724;2022-11-20T17:20:51;8.70;99.90
25302;DHT22;13243;50.888;4.724;2022-11-20T17:25:53;8.70;99.90
25302;DHT22;13243;50.888;4.724;2022-11-20T17:31:01;8.70;99.90
25302;DHT22;13243;50.888;4.724;2022-11-20T17:36:05;8.60;99.90
25302;DHT22;13243;50.888;4.724;2022-11-20T17:41:18;8.60;99.90
25302;DHT22;13243;50.888;4.724;2022-11-20T17:46:22;8.50;99.90
25302;DHT22;13243;50.888;4.724;2022-11-20T17:51:30;8.40;99.90
25302;DHT22;13243;50.888;4.724;2022-11-20T17:56:33;8.20;99.90
25302;DHT22;13243;50.888;4.724;2022-11-20T18:01:53;8.20;99.90
25302;DHT22;13243;50.888;4.724;2022-11-20T18:07:00;8.20;99.90
25302;DHT22;13243;50.888;4.724;2022-11-20T18:12:02;8.20;99.90
25302;DHT22;13243;50.888;4.724;2022-11-20T18:17:07;8.40;99.90
25302;DHT22;13243;50.888;4.724;2022-11-20T18:22:11;8.30;99.90
25302;DHT22;13243;50.888;4.724;2022-11-20T18:27:16;8.20;99.90
25302;DHT22;13243;50.888;4.724;2022-11-20T18:32:21;8.20;99.90
25302;DHT22;13243;50.888;4.724;2022-11-20T18:37:23;8.20;99.90
25302;DHT22;13243;50.888;4.724;2022-11-20T18:42:25;8.20;99.90
25302;DHT22;13243;50.888;4.724;2022-11-20T18:47:47;8.20;99.90
25302;DHT22;13243;50.888;4.724;2022-11-20T18:52:49;8.00;99.90
25302;DHT22;13243;50.888;4.724;2022-11-20T18:57:51;8.00;99.90
25302;DHT22;13243;50.888;4.724;2022-11-20T19:02:53;8.10;99.90
25302;DHT22;13243;50.888;4.724;2022-11-20T19:07:55;8.10;99.90
25302;DHT22;13243;50.888;4.724;2022-11-20T19:12:57;8.20;99.90
25302;DHT22;13243;50.888;4.724;2022-11-20T19:17:59;8.20;99.90
25302;DHT22;13243;50.888;4.724;2022-11-20T19:23:01;8.20;99.90
25302;DHT22;13243;50.888;4.724;2022-11-20T19:28:03;8.20;99.90
25302;DHT22;13243;50.888;4.724;2022-11-20T19:33:06;8.20;99.90
25302;DHT22;13243;50.888;4.724;2022-11-20T19:38:10;8.20;99.90
25302;DHT22;13243;50.888;4.724;2022-11-20T19:43:12;8.30;99.90
25302;DHT22;13243;50.888;4.724;2022-11-20T19:48:14;8.20;99.90
25302;DHT22;13243;50.888;4.724;2022-11-20T19:53:15;8.10;99.90
25302;DHT22;13243;50.888;4.724;2022-11-20T19:58:19;8.00;99.90
25302;DHT22;13243;50.888;4.724;2022-11-20T20:03:22;8.00;99.90
25302;DHT22;13243;50.888;4.724;2022-11-20T20:08:23;7.90;99.90
25302;DHT22;13243;50.888;4.724;2022-11-20T20:13:26;8.00;99.90
25302;DHT22;13243;50.888;4.724;2022-11-20T20:18:28;7.90;99.90
25302;DHT22;13243;50.888;4.724;2022-11-20T20:23:30;7.90;99.90
25302;DHT22;13243;50.888;4.724;2022-11-20T20:28:32;7.80;99.90
25302;DHT22;13243;50.888;4.724;2022-11-20T20:33:35;7.90;99.90
25302;DHT22;13243;50.888;4.724;2022-11-20T20:38:38;7.90;99.90
25302;DHT22;13243;50.888;4.724;2022-11-20T20:43:40;7.90;99.90
25302;DHT22;13243;50.888;4.724;2022-11-20T20:49:00;8.00;99.90
25302;DHT22;13243;50.888;4.724;2022-11-20T20:54:03;7.90;99.90
25302;DHT22;13243;50.888;4.724;2022-11-20T20:59:05;7.90;99.90
25302;DHT22;13243;50.888;4.724;2022-11-20T21:04:07;7.90;99.90
25302;DHT22;13243;50.888;4.724;2022-11-20T21:09:09;7.80;99.90
25302;DHT22;13243;50.888;4.724;2022-11-20T21:14:11;7.70;99.90
25302;DHT22;13243;50.888;4.724;2022-11-20T21:19:13;7.60;99.90
25302;DHT22;13243;50.888;4.724;2022-11-20T21:24:15;7.50;99.90
25302;DHT22;13243;50.888;4.724;2022-11-20T21:29:18;7.50;99.90
25302;DHT22;13243;50.888;4.724;2022-11-20T21:34:20;7.40;99.90
25302;DHT22;13243;50.888;4.724;2022-11-20T21:39:23;7.30;99.90
25302;DHT22;13243;50.888;4.724;2022-11-20T21:44:25;7.30;99.90
25302;DHT22;13243;50.888;4.724;2022-11-20T21:49:32;7.30;99.90
25302;DHT22;13243;50.888;4.724;2022-11-20T21:54:34;7.30;99.90
25302;DHT22;13243;50.888;4.724;2022-11-20T21:59:36;7.30;99.90
25302;DHT22;13243;50.888;4.724;2022-11-20T22:04:38;7.20;99.90
25302;DHT22;13243;50.888;4.724;2022-11-20T22:09:40;7.20;99.90
25302;DHT22;13243;50.888;4.724;2022-11-20T22:14:42;7.20;99.90
25302;DHT22;13243;50.888;4.724;2022-11-20T22:19:44;7.20;99.90
25302;DHT22;13243;50.888;4.724;2022-11-20T22:24:46;7.10;99.90
25302;DHT22;13243;50.888;4.724;2022-11-20T22:29:48;7.20;99.90
25302;DHT22;13243;50.888;4.724;2022-11-20T22:34:52;7.20;99.90
25302;DHT22;13243;50.888;4.724;2022-11-20T22:39:54;7.20;99.90
25302;DHT22;13243;50.888;4.724;2022-11-20T22:44:56;7.20;99.90
25302;DHT22;13243;50.888;4.724;2022-11-20T22:49:58;7.10;99.90
25302;DHT22;13243;50.888;4.724;2022-11-20T22:55:00;7.10;99.90
25302;DHT22;13243;50.888;4.724;2022-11-20T23:00:02;7.10;99.90
25302;DHT22;13243;50.888;4.724;2022-11-20T23:05:05;7.10;99.90
25302;DHT22;13243;50.888;4.724;2022-11-20T23:10:07;7.00;99.90
25302;DHT22;13243;50.888;4.724;2022-11-20T23:15:09;7.00;99.90
25302;DHT22;13243;50.888;4.724;2022-11-20T23:20:11;7.00;99.90
25302;DHT22;13243;50.888;4.724;2022-11-20T23:25:13;7.00;99.90
25302;DHT22;13243;50.888;4.724;2022-11-20T23:30:15;7.00;99.90
25302;DHT22;13243;50.888;4.724;2022-11-20T23:35:17;6.90;99.90
25302;DHT22;13243;50.888;4.724;2022-11-20T23:40:19;6.90;99.90
25302;DHT22;13243;50.888;4.724;2022-11-20T23:45:21;6.90;99.90
25302;DHT22;13243;50.888;4.724;2022-11-20T23:50:24;7.00;99.90
25302;DHT22;13243;50.888;4.724;2022-11-20T23:55:26;7.10;99.90
